Time;durP1;ratioP1;P1;durP2;ratioP2;P2;SDS_P1;SDS_P2;PMS_P1;PMS_P2;Temp;Humidity;BMP_temperature;BMP_pressure;BME280_temperature;BME280_humidity;BME280_pressure;Samples;Min_cycle;Max_cycle;Signal;HPM_P1;HPM_P2
2023/05/16 00:00:05;;;;;;;66.93;63.53;;;;;;;11.97;78.28;97821.94;4993527;28;20104;-75
2023/05/16 00:02:38;;;;;;;65.53;62.22;;;;;;;11.66;78.78;97795.84;5106586;23;20042;-75
2023/05/16 00:34:08;;;;;;;77.00;72.95;;;;;;;11.47;80.55;97829.69;3351266;26;20046;-73
2023/05/16 00:36:35;;;;;;;74.13;70.38;;;;;;;11.39;80.86;97838.28;5012231;28;20038;-73
2023/05/16 00:39:00;;;;;;;80.25;75.97;;;;;;;11.07;82.21;97836.38;5012037;28;20113;-75
2023/05/16 00:41:26;;;;;;;78.88;74.60;;;;;;;11.27;81.07;97835.72;4998486;28;20140;-75
2023/05/16 00:43:51;;;;;;;80.15;76.00;;;;;;;11.50;80.04;97834.56;5031841;28;20064;-75
2023/05/16 00:46:17;;;;;;;74.50;70.63;;;;;;;11.32;80.19;97840.38;4997774;28;20040;-75
2023/05/16 00:48:42;;;;;;;74.78;70.90;;;;;;;11.32;79.88;97832.28;4995690;28;20030;-75
2023/05/16 00:51:08;;;;;;;72.80;69.20;;;;;;;11.35;79.79;97842.53;5012118;28;20040;-74
2023/05/16 00:53:35;;;;;;;69.20;65.80;;;;;;;11.28;79.37;97836.53;4995484;28;20044;-75
2023/05/16 00:56:02;;;;;;;69.70;66.20;;;;;;;11.13;80.15;97845.34;4980179;28;20030;-75
2023/05/16 00:58:31;;;;;;;69.22;65.82;;;;;;;10.98;80.61;97859.47;4996207;28;20056;-74
2023/05/16 01:00:56;;;;;;;79.65;75.53;;;;;;;10.55;82.49;97848.78;5010112;28;20136;-73
2023/05/16 01:03:23;;;;;;;82.28;77.97;;;;;;;10.28;84.30;97842.53;5031595;28;20064;-74
2023/05/16 01:05:48;;;;;;;85.35;80.78;;;;;;;10.50;83.59;97848.75;5031541;28;20057;-74
2023/05/16 01:08:14;;;;;;;85.03;80.45;;;;;;;10.63;82.91;97851.03;5014882;28;20071;-74
2023/05/16 01:10:49;;;;;;;79.82;75.60;;;;;;;10.67;81.31;97852.16;5029514;28;20030;-74
2023/05/16 01:13:23;;;;;;;78.22;74.32;;;;;;;10.66;80.59;97850.53;5011196;28;20030;-74
2023/05/16 01:16:09;;;;;;;79.28;75.25;;;;;;;10.65;80.90;97848.91;5016607;28;20037;-75
2023/05/16 01:18:43;;;;;;;79.22;75.03;;;;;;;10.70;80.55;97854.34;5011255;28;20044;-75
2023/05/16 01:21:15;;;;;;;72.22;68.43;;;;;;;10.46;81.22;97850.28;4994717;28;20090;-75
2023/05/16 01:23:52;;;;;;;78.30;74.30;;;;;;;9.99;83.48;97871.47;4994531;28;20393;-74
2023/05/16 01:26:21;;;;;;;79.20;75.20;;;;;;;10.30;82.26;97851.19;5011043;28;20113;-75
2023/05/16 01:28:47;;;;;;;79.22;75.22;;;;;;;10.47;81.04;97862.69;5012109;28;20557;-74
2023/05/16 01:31:13;;;;;;;76.75;72.88;;;;;;;10.25;81.30;97859.19;5011113;28;20038;-76
2023/05/16 01:33:38;;;;;;;78.60;74.45;;;;;;;10.12;82.08;97859.56;4994345;28;20395;-75
2023/05/16 01:36:16;;;;;;;70.78;67.18;;;;;;;10.29;81.09;97860.34;4978380;28;20057;-76
2023/05/16 01:39:02;;;;;;;75.97;72.07;;;;;;;10.36;81.14;97855.56;4983772;28;20033;-75
2023/05/16 01:41:51;;;;;;;72.50;68.72;;;;;;;10.28;80.58;97866.78;5006404;28;20037;-75
2023/05/16 01:44:31;;;;;;;74.45;70.70;;;;;;;10.29;80.14;97869.19;5017725;28;20038;-75
2023/05/16 01:47:00;;;;;;;72.25;68.55;;;;;;;10.16;80.64;97858.00;5002816;28;20037;-74
2023/05/16 01:49:28;;;;;;;75.15;71.30;;;;;;;10.05;80.74;97851.66;4996090;28;20033;-75
2023/05/16 01:51:59;;;;;;;75.47;71.57;;;;;;;9.92;81.52;97862.75;5024140;28;20037;-74
2023/05/16 01:54:30;;;;;;;73.97;70.28;;;;;;;10.02;81.00;97864.78;5012092;28;20042;-75
2023/05/16 01:56:56;;;;;;;73.43;69.65;;;;;;;10.16;80.49;97863.38;5006036;28;20186;-74
2023/05/16 01:59:23;;;;;;;69.80;66.28;;;;;;;10.16;80.80;97860.69;5001025;28;20029;-75
2023/05/16 02:01:48;;;;;;;79.85;75.75;;;;;;;10.11;80.22;97864.13;5003874;28;20038;-75
2023/05/16 02:04:14;;;;;;;71.28;67.53;;;;;;;10.06;80.25;97865.94;5007385;28;20495;-75
2023/05/16 02:06:41;;;;;;;74.07;70.18;;;;;;;10.04;80.47;97859.97;4988964;28;20029;-75
2023/05/16 02:09:07;;;;;;;76.07;72.00;;;;;;;10.12;80.86;97870.34;5017254;28;20013;-75
2023/05/16 02:11:32;;;;;;;76.82;72.93;;;;;;;10.19;82.01;97871.78;5014150;28;20034;-75
2023/05/16 02:13:58;;;;;;;75.13;70.93;;;;;;;10.23;81.71;97861.31;5000633;28;20029;-75
2023/05/16 02:16:24;;;;;;;71.20;67.18;;;;;;;10.12;81.46;97864.94;5020550;28;20105;-75
2023/05/16 02:18:49;;;;;;;70.28;66.40;;;;;;;10.18;80.81;97869.31;4991181;28;20022;-76
2023/05/16 02:21:15;;;;;;;70.50;66.93;;;;;;;10.19;81.78;97865.59;5020251;28;20060;-76
2023/05/16 02:23:40;;;;;;;68.95;65.05;;;;;;;10.19;81.11;97860.19;4984577;28;20057;-75
2023/05/16 02:26:05;;;;;;;75.95;72.00;;;;;;;10.01;81.88;97852.41;5020887;28;20049;-75
2023/05/16 02:28:31;;;;;;;71.20;67.32;;;;;;;10.19;81.21;97854.81;5023853;28;20105;-76
2023/05/16 02:31:00;;;;;;;70.47;66.78;;;;;;;10.23;81.21;97855.94;4994657;28;20037;-75
2023/05/16 02:33:27;;;;;;;68.72;65.15;;;;;;;10.31;80.21;97859.03;5013323;28;20082;-75
2023/05/16 02:35:52;;;;;;;70.90;66.90;;;;;;;10.19;81.06;97860.19;5004156;28;20045;-73
2023/05/16 02:38:19;;;;;;;70.82;66.93;;;;;;;10.36;80.86;97855.56;5026049;28;20486;-74
2023/05/16 02:40:46;;;;;;;66.90;63.20;;;;;;;10.38;81.08;97858.81;5024018;28;20410;-73
2023/05/16 02:43:11;;;;;;;67.10;63.72;;;;;;;10.32;81.13;97859.81;5014792;28;20033;-76
2023/05/16 02:45:37;;;;;;;69.60;66.00;;;;;;;10.16;82.12;97863.38;5014346;28;20296;-75
2023/05/16 02:48:02;;;;;;;73.95;69.85;;;;;;;10.06;82.45;97871.31;4994421;28;20025;-76
2023/05/16 02:50:28;;;;;;;73.38;69.28;;;;;;;10.31;81.44;97860.91;5007316;28;20037;-76
2023/05/16 02:52:53;;;;;;;75.00;70.97;;;;;;;9.66;84.04;97856.22;5020402;28;20175;-75
2023/05/16 02:55:18;;;;;;;74.07;70.13;;;;;;;9.71;83.78;97864.34;4991652;28;20038;-75
2023/05/16 02:57:44;;;;;;;78.45;74.25;;;;;;;9.77;84.10;97862.56;5024923;28;20032;-74
2023/05/16 03:00:11;;;;;;;76.97;72.88;;;;;;;9.96;83.25;97849.66;5024395;28;20487;-76
2023/05/16 03:02:37;;;;;;;74.10;70.03;;;;;;;9.94;83.54;97862.53;4994299;28;20046;-75
2023/05/16 03:05:03;;;;;;;76.93;72.72;;;;;;;9.94;83.41;97859.84;5024216;28;20510;-75
2023/05/16 03:07:29;;;;;;;75.30;71.03;;;;;;;9.91;83.94;97857.63;5021778;28;20056;-74
2023/05/16 03:09:55;;;;;;;74.47;70.18;;;;;;;9.99;83.26;97859.91;5035775;28;20033;-75
2023/05/16 03:12:20;;;;;;;72.20;68.38;;;;;;;10.23;83.37;97866.69;5020855;28;20025;-75
2023/05/16 03:14:46;;;;;;;72.40;68.25;;;;;;;10.22;83.10;97865.09;5023864;28;20145;-75
2023/05/16 03:17:11;;;;;;;69.50;65.60;;;;;;;10.35;82.85;97860.13;5010674;28;20022;-74
2023/05/16 03:19:36;;;;;;;63.92;60.63;;;;;;;10.51;81.72;97858.44;5013722;28;20124;-75
2023/05/16 03:22:02;;;;;;;61.75;58.50;;;;;;;10.43;80.87;97861.59;5013762;28;20029;-75
2023/05/16 03:24:28;;;;;;;61.72;58.63;;;;;;;10.28;81.24;97869.47;4997169;28;20029;-75
2023/05/16 03:26:54;;;;;;;63.28;59.85;;;;;;;10.30;81.23;97867.34;5027981;28;20489;-75
2023/05/16 03:29:19;;;;;;;59.42;56.33;;;;;;;10.39;80.73;97866.63;5022473;28;20052;-75
2023/05/16 03:31:45;;;;;;;60.47;57.28;;;;;;;10.49;80.82;97873.22;5019879;28;20026;-75
2023/05/16 03:34:10;;;;;;;60.10;56.85;;;;;;;10.27;80.84;97878.59;5024362;28;20037;-75
2023/05/16 03:36:38;;;;;;;58.75;55.60;;;;;;;10.36;80.61;97877.13;5026644;28;20509;-75
2023/05/16 03:39:03;;;;;;;63.55;60.17;;;;;;;10.37;81.09;97873.34;5005334;28;20029;-75
2023/05/16 03:41:28;;;;;;;64.18;60.65;;;;;;;10.16;81.16;97882.22;5000934;28;20045;-74
2023/05/16 03:43:54;;;;;;;62.00;58.72;;;;;;;10.18;81.42;97874.69;5004993;28;20036;-75
2023/05/16 03:46:19;;;;;;;65.82;62.28;;;;;;;10.23;81.59;97877.47;5003228;28;20495;-75
2023/05/16 03:48:45;;;;;;;274.77;248.75;;;;;;;9.87;83.59;97884.19;5022461;28;20038;-76
2023/05/16 03:51:10;;;;;;;93.57;87.22;;;;;;;10.01;82.95;97882.00;5017897;28;20454;-75
2023/05/16 03:53:36;;;;;;;363.40;333.17;;;;;;;10.09;83.06;97881.56;4996935;28;20041;-75
2023/05/16 03:56:01;;;;;;;146.32;134.48;;;;;;;10.16;83.18;97893.81;5015965;28;20035;-76
2023/05/16 03:58:28;;;;;;;143.90;132.43;;;;;;;10.38;82.27;97891.13;5005380;28;20072;-76
2023/05/16 04:00:53;;;;;;;83.93;78.47;;;;;;;10.28;82.37;97885.59;5030992;28;20057;-75
2023/05/16 04:03:19;;;;;;;85.82;80.22;;;;;;;10.45;81.44;97889.06;5014064;28;20038;-75
2023/05/16 04:05:45;;;;;;;73.07;68.88;;;;;;;10.56;81.18;97893.50;5014187;28;20510;-75
2023/05/16 04:08:10;;;;;;;65.35;61.15;;;;;;;10.60;80.55;97888.41;5005386;28;20476;-75
2023/05/16 04:10:36;;;;;;;62.53;58.95;;;;;;;10.55;80.61;97889.16;5014538;28;20018;-76
2023/05/16 04:13:01;;;;;;;59.85;56.63;;;;;;;10.47;80.89;97884.25;4996344;28;20056;-75
2023/05/16 04:15:26;;;;;;;59.88;56.47;;;;;;;10.57;80.41;97887.03;5029290;28;20046;-75
2023/05/16 04:17:52;;;;;;;59.40;56.20;;;;;;;10.63;80.07;97899.50;5030063;28;20529;-76
2023/05/16 04:20:18;;;;;;;61.03;57.60;;;;;;;10.59;80.42;97908.34;5020547;28;20045;-75
2023/05/16 04:22:43;;;;;;;60.15;56.88;;;;;;;10.59;80.04;97908.34;5007278;28;20408;-76
2023/05/16 04:25:10;;;;;;;60.03;56.85;;;;;;;10.73;79.99;97910.41;5014473;28;20030;-76
2023/05/16 04:27:35;;;;;;;54.53;51.33;;;;;;;10.77;79.28;97910.69;5023520;28;20034;-76
2023/05/16 04:30:01;;;;;;;54.80;51.60;;;;;;;10.75;79.42;97908.25;5025657;28;20024;-76
2023/05/16 04:32:27;;;;;;;55.42;52.38;;;;;;;10.70;79.70;97905.50;5021029;28;20045;-76
2023/05/16 04:34:53;;;;;;;51.53;48.75;;;;;;;10.77;79.21;97910.69;5018612;28;20061;-75
2023/05/16 04:37:18;;;;;;;51.85;49.05;;;;;;;10.86;79.27;97910.00;5024133;28;20041;-75
2023/05/16 04:39:44;;;;;;;58.00;54.80;;;;;;;10.77;80.46;97921.47;5001138;28;20057;-74
2023/05/16 04:42:09;;;;;;;56.10;53.00;;;;;;;10.90;79.62;97916.50;5027561;28;20515;-76
2023/05/16 04:44:35;;;;;;;55.30;52.38;;;;;;;10.84;79.61;97922.09;5000098;28;20026;-75
2023/05/16 04:47:00;;;;;;;59.17;55.78;;;;;;;10.69;81.18;97925.41;5011982;28;20443;-75
2023/05/16 04:49:25;;;;;;;57.78;54.58;;;;;;;10.87;79.91;97922.41;5010038;28;20475;-75
2023/05/16 04:51:51;;;;;;;55.03;52.15;;;;;;;10.99;79.93;97925.75;5007349;28;20077;-75
2023/05/16 04:54:16;;;;;;;54.20;51.28;;;;;;;11.10;79.43;97927.50;5026173;28;20029;-75
2023/05/16 04:56:42;;;;;;;52.00;49.08;;;;;;;11.21;79.05;97943.75;4995458;28;20407;-77
2023/05/16 04:59:07;;;;;;;53.55;50.55;;;;;;;11.07;79.47;97940.66;5011627;28;20026;-76
2023/05/16 05:01:33;;;;;;;54.90;51.83;;;;;;;11.07;79.28;97941.47;5018895;28;20072;-76
2023/05/16 05:03:58;;;;;;;52.85;50.00;;;;;;;11.36;78.70;97942.06;5001098;28;20395;-76
2023/05/16 05:06:23;;;;;;;56.55;53.13;;;;;;;11.16;79.32;97947.22;5012038;28;20050;-76
2023/05/16 05:08:49;;;;;;;56.17;53.08;;;;;;;11.27;79.06;97942.75;4996486;28;20026;-76
2023/05/16 05:11:14;;;;;;;60.80;57.47;;;;;;;10.96;80.83;97945.16;5031215;28;20049;-76
2023/05/16 05:13:40;;;;;;;58.20;55.13;;;;;;;11.10;79.59;97943.69;4984655;28;20036;-76
2023/05/16 05:16:05;;;;;;;56.70;53.30;;;;;;;11.18;78.96;97952.38;5032459;28;20047;-76
2023/05/16 05:18:31;;;;;;;60.42;57.22;;;;;;;11.19;80.00;97945.91;5001649;28;20025;-76
2023/05/16 05:20:57;;;;;;;58.45;54.90;;;;;;;11.23;80.27;97947.00;5025237;28;20060;-76
2023/05/16 05:23:22;;;;;;;56.25;53.00;;;;;;;11.53;79.07;97941.91;5011909;28;20029;-75
2023/05/16 05:25:47;;;;;;;50.15;47.30;;;;;;;11.69;77.93;97944.50;5007678;28;20029;-77
2023/05/16 05:28:13;;;;;;;54.85;51.75;;;;;;;11.47;78.45;97938.38;5025893;28;20033;-77
2023/05/16 05:30:38;;;;;;;47.80;44.90;;;;;;;11.68;77.35;97934.81;5012048;28;20403;-76
2023/05/16 05:33:03;;;;;;;48.38;45.58;;;;;;;11.80;77.39;97937.31;5025643;28;20037;-77
2023/05/16 05:35:29;;;;;;;49.60;46.60;;;;;;;11.60;77.48;97954.13;5011470;28;20041;-76
2023/05/16 05:37:54;;;;;;;52.67;49.70;;;;;;;11.46;79.96;97946.72;5025704;28;20029;-76
2023/05/16 05:40:20;;;;;;;50.55;47.78;;;;;;;11.63;79.06;97945.53;5004697;28;20042;-76
2023/05/16 05:42:45;;;;;;;51.83;48.75;;;;;;;11.58;79.12;97961.66;5017967;28;20079;-76
2023/05/16 05:45:10;;;;;;;54.83;51.67;;;;;;;11.31;79.65;97954.66;5010957;28;20045;-76
2023/05/16 05:47:36;;;;;;;51.22;48.35;;;;;;;11.53;78.78;97964.31;5023807;28;20410;-76
2023/05/16 05:50:02;;;;;;;53.25;50.25;;;;;;;11.75;78.11;97951.59;5025690;28;20034;-76
2023/05/16 05:52:28;;;;;;;55.08;51.88;;;;;;;11.56;78.40;97965.66;5024248;28;20418;-76
2023/05/16 05:54:53;;;;;;;54.53;51.42;;;;;;;11.61;78.37;97971.13;5011952;28;20041;-76
2023/05/16 05:57:19;;;;;;;52.30;49.20;;;;;;;11.76;78.44;97968.59;5011229;28;20026;-77
2023/05/16 05:59:44;;;;;;;52.10;49.08;;;;;;;11.45;79.39;97980.13;4994546;28;20038;-76
2023/05/16 06:02:10;;;;;;;54.45;51.20;;;;;;;11.86;78.36;97979.44;5010766;28;20054;-76
2023/05/16 06:04:35;;;;;;;49.38;46.47;;;;;;;11.64;77.95;97970.63;4983962;28;20415;-76
2023/05/16 06:07:01;;;;;;;49.60;46.50;;;;;;;11.88;78.04;97969.22;5001771;28;20022;-76
2023/05/16 06:09:26;;;;;;;50.17;47.17;;;;;;;11.55;78.95;97966.75;5012028;28;20034;-76
2023/05/16 06:11:51;;;;;;;52.92;49.83;;;;;;;11.65;78.69;97970.34;5023256;28;20021;-76
2023/05/16 06:14:17;;;;;;;53.22;50.13;;;;;;;11.57;79.50;97975.41;5016525;28;20034;-78
2023/05/16 06:16:42;;;;;;;56.03;52.83;;;;;;;11.64;79.05;97973.31;5021664;28;20451;-76
2023/05/16 06:19:08;;;;;;;57.60;54.20;;;;;;;11.63;79.83;97985.16;5029336;28;20041;-77
2023/05/16 06:21:35;;;;;;;62.03;58.58;;;;;;;11.62;79.87;97983.56;5026798;28;20025;-76
2023/05/16 06:24:00;;;;;;;55.05;51.92;;;;;;;11.41;79.25;97977.13;4999409;28;20152;-77
2023/05/16 06:26:26;;;;;;;60.55;57.00;;;;;;;11.76;79.46;97979.38;5014790;28;20138;-76
2023/05/16 06:28:51;;;;;;;56.78;53.53;;;;;;;12.14;78.09;97981.81;4998245;28;20034;-76
2023/05/16 06:31:16;;;;;;;50.72;47.75;;;;;;;12.01;77.37;97971.50;5026770;28;20040;-76
2023/05/16 06:33:42;;;;;;;52.03;49.10;;;;;;;12.02;78.22;97970.41;5021876;28;20048;-76
2023/05/16 06:36:07;;;;;;;53.13;49.92;;;;;;;12.19;77.50;97968.38;5022658;28;20026;-77
2023/05/16 06:38:33;;;;;;;51.15;48.08;;;;;;;12.18;78.17;97972.13;5031785;28;20065;-76
2023/05/16 06:40:58;;;;;;;51.90;48.80;;;;;;;11.82;78.07;97978.34;4989420;28;20034;-77
2023/05/16 06:43:23;;;;;;;54.03;50.83;;;;;;;11.86;78.99;97965.97;4981538;28;20033;-76
2023/05/16 06:45:49;;;;;;;53.53;50.22;;;;;;;11.84;78.81;97976.19;5014436;28;20029;-77
2023/05/16 06:48:16;;;;;;;54.33;51.03;;;;;;;12.22;77.90;97975.97;5032672;28;20096;-76
2023/05/16 06:50:42;;;;;;;52.67;49.38;;;;;;;12.52;77.02;97961.00;5017941;28;20021;-77
2023/05/16 06:53:07;;;;;;;53.72;50.50;;;;;;;12.36;77.51;97957.41;5017422;28;20125;-76
2023/05/16 06:55:33;;;;;;;50.55;47.55;;;;;;;13.18;74.82;97971.81;5015536;28;20022;-77
2023/05/16 06:57:58;;;;;;;46.15;43.05;;;;;;;12.80;76.06;97968.69;5027637;28;20037;-76
2023/05/16 07:00:24;;;;;;;46.55;43.55;;;;;;;13.25;75.63;97974.31;5027278;28;20071;-77
2023/05/16 07:02:50;;;;;;;49.28;45.83;;;;;;;12.90;75.90;97980.38;5004273;28;20052;-77
2023/05/16 07:05:15;;;;;;;47.55;44.55;;;;;;;13.67;74.55;97969.50;5023268;28;20030;-77
2023/05/16 07:07:40;;;;;;;41.05;38.10;;;;;;;13.91;72.98;97969.75;5010852;28;20044;-77
2023/05/16 07:10:06;;;;;;;34.40;32.00;;;;;;;13.50;73.36;97968.13;5025598;28;20032;-77
2023/05/16 07:12:32;;;;;;;38.00;35.30;;;;;;;13.24;74.56;97974.53;5003718;28;20442;-77
2023/05/16 07:14:57;;;;;;;36.85;34.25;;;;;;;13.57;73.48;97983.00;4989588;28;20025;-77
2023/05/16 07:17:22;;;;;;;35.38;32.95;;;;;;;13.44;73.51;97980.81;5026862;28;20042;-77
2023/05/16 07:19:49;;;;;;;35.92;33.45;;;;;;;13.77;72.71;97974.09;5025418;28;20052;-77
2023/05/16 07:22:14;;;;;;;33.78;31.15;;;;;;;13.33;73.54;97976.47;5003935;28;20037;-77
2023/05/16 07:24:39;;;;;;;34.60;32.10;;;;;;;12.98;74.78;97976.31;5034271;28;20067;-77
2023/05/16 07:27:05;;;;;;;37.67;34.75;;;;;;;13.42;73.25;97969.44;5020145;28;20547;-77
2023/05/16 07:29:30;;;;;;;34.90;32.20;;;;;;;13.14;74.98;97980.72;5033362;28;20049;-77
2023/05/16 07:31:56;;;;;;;31.30;28.73;;;;;;;13.09;73.82;97973.41;4998517;28;20042;-76
2023/05/16 07:34:21;;;;;;;35.45;32.55;;;;;;;13.10;74.23;97974.25;4996779;28;20030;-77
2023/05/16 07:36:47;;;;;;;37.60;34.88;;;;;;;13.54;73.35;97988.94;5031533;28;20124;-77
2023/05/16 07:39:13;;;;;;;38.72;35.97;;;;;;;12.78;75.30;97993.28;5005438;28;20029;-77
2023/05/16 07:41:38;;;;;;;33.92;31.33;;;;;;;13.10;74.18;97990.47;5005541;28;20029;-75
2023/05/16 07:44:03;;;;;;;38.92;36.03;;;;;;;13.46;73.63;97999.50;5024771;28;20056;-77
2023/05/16 07:46:29;;;;;;;36.30;33.72;;;;;;;13.50;72.60;97990.56;5016413;28;20403;-77
2023/05/16 07:48:54;;;;;;;34.47;31.85;;;;;;;13.79;72.84;97993.59;5022866;28;20022;-77
2023/05/16 07:51:20;;;;;;;27.98;25.58;;;;;;;13.02;72.90;98004.47;5027615;28;20033;-77
2023/05/16 07:53:45;;;;;;;34.72;31.95;;;;;;;13.32;73.47;98001.91;5017758;28;20462;-77
2023/05/16 07:56:11;;;;;;;33.55;30.92;;;;;;;13.69;72.44;98009.81;5026717;28;20451;-77
2023/05/16 07:58:37;;;;;;;36.03;33.13;;;;;;;14.07;71.23;98005.78;5016331;28;20041;-77
2023/05/16 08:01:02;;;;;;;32.35;29.67;;;;;;;14.11;71.32;98001.44;5014839;28;20037;-76
2023/05/16 08:03:28;;;;;;;30.45;27.98;;;;;;;13.41;73.92;98004.88;5024215;28;20036;-77
2023/05/16 08:05:53;;;;;;;28.33;25.90;;;;;;;13.46;72.32;98005.72;5017133;28;20121;-76
2023/05/16 08:08:18;;;;;;;25.33;23.33;;;;;;;13.65;71.28;98003.31;5005695;28;20033;-77
2023/05/16 08:10:44;;;;;;;27.10;24.63;;;;;;;14.09;70.33;98009.03;5014120;28;20064;-76
2023/05/16 08:13:09;;;;;;;22.52;20.52;;;;;;;13.94;70.01;98009.84;5023946;28;20018;-77
2023/05/16 08:15:34;;;;;;;23.55;21.17;;;;;;;14.23;69.54;98010.09;5015830;28;20403;-77
2023/05/16 08:18:00;;;;;;;21.45;19.38;;;;;;;13.99;68.67;98019.84;5006765;28;20029;-77
2023/05/16 08:20:26;;;;;;;21.85;19.75;;;;;;;14.21;69.21;98017.69;5019347;28;20038;-77
2023/05/16 08:22:52;;;;;;;21.02;19.02;;;;;;;14.14;67.48;98017.16;5021905;28;20036;-77
2023/05/16 08:25:18;;;;;;;20.90;19.00;;;;;;;14.31;67.03;98017.69;5025787;28;20042;-76
2023/05/16 08:27:48;;;;;;;22.85;20.95;;;;;;;14.19;69.35;98017.94;5022702;28;20105;-76
2023/05/16 08:30:14;;;;;;;22.77;20.67;;;;;;;13.68;69.56;97998.16;4998631;28;20026;-76
2023/05/16 08:32:39;;;;;;;20.63;18.80;;;;;;;14.21;67.87;98001.44;5024171;28;20479;-77
2023/05/16 08:35:05;;;;;;;18.38;16.52;;;;;;;15.07;65.64;98013.75;5001869;28;20037;-77
2023/05/16 08:37:31;;;;;;;17.88;16.05;;;;;;;15.33;65.08;98019.03;5023286;28;20032;-77
2023/05/16 08:39:57;;;;;;;15.30;13.80;;;;;;;14.47;65.83;98022.81;4995967;28;20384;-77
2023/05/16 08:42:22;;;;;;;15.55;13.93;;;;;;;14.62;66.27;98029.31;5006717;28;20028;-77
2023/05/16 08:44:48;;;;;;;14.48;13.07;;;;;;;14.47;66.84;98022.81;5015888;28;20079;-78
2023/05/16 08:47:18;;;;;;;12.80;11.50;;;;;;;15.12;64.06;98029.97;5015810;28;20022;-78
2023/05/16 08:49:46;;;;;;;13.32;11.85;;;;;;;15.33;62.62;98040.75;5025418;28;20029;-77
2023/05/16 08:52:12;;;;;;;12.32;11.13;;;;;;;15.09;62.92;98046.81;5006888;28;20022;-77
2023/05/16 08:54:38;;;;;;;11.45;10.30;;;;;;;15.53;61.96;98044.19;5018623;28;20052;-77
2023/05/16 08:57:04;;;;;;;11.30;10.23;;;;;;;15.06;63.09;98047.34;4987981;28;20021;-77
2023/05/16 08:59:30;;;;;;;16.45;11.75;;;;;;;14.65;63.38;98042.31;5012777;28;20056;-77
2023/05/16 09:01:56;;;;;;;11.57;10.35;;;;;;;15.35;60.94;98035.84;5023365;28;20029;-77
2023/05/16 09:04:24;;;;;;;10.50;9.30;;;;;;;16.37;59.48;98030.28;5002733;28;20033;-77
2023/05/16 09:06:49;;;;;;;9.95;8.95;;;;;;;15.97;60.36;98036.03;5005173;28;20026;-77
2023/05/16 09:09:15;;;;;;;10.35;9.38;;;;;;;16.16;61.14;98042.41;5024905;28;20117;-77
2023/05/16 09:11:41;;;;;;;10.45;9.45;;;;;;;16.03;60.25;98048.50;5022541;28;20410;-77
2023/05/16 09:14:06;;;;;;;10.40;8.18;;;;;;;15.90;58.61;98052.66;5018167;28;20045;-77
2023/05/16 09:16:32;;;;;;;9.40;7.80;;;;;;;14.92;61.48;98049.03;5004174;28;20079;-77
2023/05/16 09:18:59;;;;;;;7.95;7.22;;;;;;;14.65;61.75;98058.59;4999510;28;20539;-77
2023/05/16 09:21:30;;;;;;;10.25;7.80;;;;;;;14.72;63.13;98048.28;5020167;28;20022;-77
2023/05/16 09:23:56;;;;;;;8.63;7.20;;;;;;;14.56;62.99;98046.69;5016442;28;20041;-77
2023/05/16 09:26:22;;;;;;;7.72;6.95;;;;;;;14.91;61.96;98060.16;5019734;28;20030;-77
2023/05/16 09:28:47;;;;;;;7.60;6.90;;;;;;;15.21;62.48;98054.63;5025807;28;20503;-77
2023/05/16 09:31:25;;;;;;;9.80;7.05;;;;;;;14.78;61.67;98050.69;5023926;28;20033;-77
2023/05/16 09:33:51;;;;;;;9.57;7.22;;;;;;;15.02;60.90;98057.16;4995198;28;20038;-77
2023/05/16 09:36:16;;;;;;;9.55;7.47;;;;;;;15.55;61.51;98061.00;5011324;28;20025;-77
2023/05/16 09:38:42;;;;;;;8.52;7.63;;;;;;;15.07;61.76;98059.03;5024678;28;20438;-77
2023/05/16 09:41:09;;;;;;;9.48;7.22;;;;;;;15.45;61.20;98054.84;5024124;28;20044;-77
2023/05/16 09:43:37;;;;;;;8.82;6.60;;;;;;;16.47;58.53;98045.69;5017668;28;20064;-77
2023/05/16 09:46:03;;;;;;;8.70;7.68;;;;;;;15.69;58.88;98050.34;5001318;28;20467;-77
2023/05/16 09:48:28;;;;;;;8.88;8.05;;;;;;;14.84;62.39;98063.13;5024365;28;20030;-77
2023/05/16 09:50:53;;;;;;;10.88;8.50;;;;;;;14.91;62.38;98060.94;5025449;28;20029;-77
2023/05/16 09:53:30;;;;;;;9.20;8.25;;;;;;;14.76;62.73;98062.91;5030603;28;20410;-77
2023/05/16 09:56:03;;;;;;;9.60;8.57;;;;;;;15.02;63.00;98068.00;5001358;28;20073;-77
2023/05/16 09:58:34;;;;;;;9.43;8.35;;;;;;;15.12;62.96;98067.16;4989727;28;20450;-77
2023/05/16 10:01:00;;;;;;;9.52;8.52;;;;;;;15.57;62.17;98072.41;5027214;28;20040;-77
2023/05/16 10:03:26;;;;;;;10.48;8.07;;;;;;;15.86;61.71;98072.53;5010856;28;20037;-77
2023/05/16 10:05:52;;;;;;;8.02;7.15;;;;;;;15.01;60.14;98066.34;5028397;28;20037;-77
2023/05/16 10:08:20;;;;;;;8.15;7.38;;;;;;;14.28;63.19;98072.41;5016530;28;20049;-78
2023/05/16 10:10:50;;;;;;;9.30;8.20;;;;;;;14.87;62.71;98078.88;5010961;28;20069;-77
2023/05/16 10:13:15;;;;;;;8.77;7.93;;;;;;;14.33;63.03;98080.53;5022552;28;20120;-76
2023/05/16 10:15:42;;;;;;;10.20;7.90;;;;;;;14.47;61.92;98084.34;5009954;28;20446;-77
2023/05/16 10:18:11;;;;;;;9.52;7.47;;;;;;;15.06;60.83;98085.34;5022808;28;20037;-77
2023/05/16 10:20:38;;;;;;;7.78;6.97;;;;;;;15.00;62.17;98080.19;5017524;28;20045;-77
2023/05/16 10:23:04;;;;;;;10.05;7.80;;;;;;;14.62;61.94;98088.94;5018905;28;20033;-77
2023/05/16 10:25:38;;;;;;;8.18;7.38;;;;;;;14.42;61.66;98093.28;5028846;28;20563;-77
2023/05/16 10:28:04;;;;;;;8.80;7.90;;;;;;;14.42;61.05;98085.16;4985369;28;20076;-77
2023/05/16 10:30:31;;;;;;;8.73;7.85;;;;;;;14.65;62.47;98100.06;4984285;28;20044;-77
2023/05/16 10:32:58;;;;;;;11.13;7.22;;;;;;;14.77;61.82;98106.00;5018411;28;20402;-77
2023/05/16 10:35:23;;;;;;;8.50;7.60;;;;;;;14.54;63.13;98095.72;4997906;28;20576;-77
2023/05/16 10:37:50;;;;;;;7.65;6.93;;;;;;;15.49;60.76;98099.31;5023960;28;20116;-77
2023/05/16 10:40:15;;;;;;;8.02;7.22;;;;;;;14.65;62.75;98100.06;5024141;28;20152;-77
2023/05/16 10:43:01;;;;;;;8.52;7.32;;;;;;;14.07;63.69;98097.84;5007361;28;20109;-77
2023/05/16 10:45:27;;;;;;;9.77;7.53;;;;;;;14.53;63.16;98096.81;5030412;28;20064;-77
2023/05/16 10:47:54;;;;;;;8.77;7.88;;;;;;;15.29;61.45;98096.63;5030292;28;20482;-77
2023/05/16 10:50:39;;;;;;;13.52;7.57;;;;;;;15.17;61.83;98092.34;5033098;28;20065;-78
2023/05/16 10:53:15;;;;;;;9.80;8.25;;;;;;;15.02;61.31;98095.13;5001043;28;20071;-77
2023/05/16 10:55:58;;;;;;;;;;;;;;;14.85;61.85;98094.59;5018326;28;20033;-77
2023/05/16 10:58:29;;;;;;;9.43;8.23;;;;;;;14.42;62.77;98089.78;5009327;28;20424;-77
2023/05/16 11:01:18;;;;;;;11.63;7.75;;;;;;;15.03;61.33;98091.28;5018431;28;20100;-77
2023/05/16 11:03:55;;;;;;;8.27;7.13;;;;;;;14.90;62.65;98088.34;5026192;28;20491;-77
2023/05/16 11:06:22;;;;;;;8.43;7.28;;;;;;;14.86;62.34;98082.69;5026864;28;20084;-77
2023/05/16 11:09:09;;;;;;;9.48;6.95;;;;;;;14.33;62.58;98086.78;5011566;28;20025;-76
2023/05/16 11:12:00;;;;;;;8.07;6.85;;;;;;;15.57;61.16;98093.28;5034392;28;20041;-77
2023/05/16 11:14:31;;;;;;;8.55;6.82;;;;;;;14.99;61.24;98095.66;5007188;28;20120;-77
2023/05/16 11:16:59;;;;;;;8.35;6.40;;;;;;;15.84;59.64;98096.44;5019501;28;20046;-77
2023/05/16 11:19:39;;;;;;;8.73;6.25;;;;;;;15.72;59.08;98090.53;4997487;28;20053;-77
2023/05/16 11:22:14;;;;;;;7.05;6.32;;;;;;;16.37;58.40;98103.69;5016938;28;20060;-77
2023/05/16 11:24:49;;;;;;;6.85;6.13;;;;;;;15.23;59.71;98102.13;5022394;28;20065;-77
2023/05/16 11:27:20;;;;;;;6.90;6.00;;;;;;;16.07;57.67;98116.66;5027215;28;20042;-77
2023/05/16 11:29:45;;;;;;;7.13;5.90;;;;;;;16.22;56.64;98103.00;5010507;28;20033;-77
2023/05/16 11:32:11;;;;;;;6.40;5.70;;;;;;;15.58;57.97;98113.94;5003834;28;20029;-77
2023/05/16 11:34:38;;;;;;;7.05;5.55;;;;;;;16.30;57.49;98105.91;5004043;28;20046;-77
2023/05/16 11:37:04;;;;;;;7.13;5.38;;;;;;;16.82;54.57;98104.41;4993819;28;20061;-77
2023/05/16 11:39:30;;;;;;;7.65;5.43;;;;;;;15.81;56.72;98107.84;5013558;28;20448;-77
2023/05/16 11:49:33;;;;;;;;;;;;;;;;;;;;;
2023/05/16 11:52:41;;;;;;;;;;;;;;;;;;;;;
2023/05/16 11:56:23;;;;;;;6.20;5.60;;;;;;;15.62;57.81;98131.28;4991931;28;20288;-77
2023/05/16 11:59:59;;;;;;;7.60;4.85;;;;;;;14.66;59.79;98138.81;5007015;28;20029;-77
2023/05/16 12:03:37;;;;;;;;;;;;;;;;;;;;;